Canadian, TX (79014)

11:14 AM CDT on May 04, 2015 (GMT -0500)
Hemphill County | | Change Station
CLOSE
Current Station
Airport
Location: Canadian,
Elevation: 2395 ft
Nearby Weather Stations

Elev 2395 ft 35.89 °N, 100.40 °W | Updated 19 minutes ago

Partly Cloudy
Partly Cloudy
73 °F
Feels Like 73 °F
N
8
Wind Variable Wind from SSE

Today
High -- | Low -- °F
--% Chance of Precip.
Yesterday
High -- | Low -- °F
Precip. -- in
6:46 AM 8:30 PM
Full, 100% visible
Pressure 30.02 in
Visibility 10.0 miles
Clouds Clear
Dew Point 59 °F
Humidity 62%
Rainfall 0.00 in
Snow Depth Not available.
UV 7 out of 12
Pollen 7.00 out of 12
Air Quality Not available.
Flu Activity Sporadic
METAR KHHF 041555Z AUTO 16007KT 10SM CLR 23/15 A3002 RMK AO2 T02260151

More Conditions Fewer Conditions

Pressure 30.02 in
Visibility 10.0 miles
Clouds Clear
Dew Point 59 °F
Humidity 62%
Rainfall 0.00 in
Snow Depth Not available.
UV 7 out of 12
Pollen 7.00 out of 12
Air Quality Not available.
Flu Activity Sporadic
METAR KHHF 041555Z AUTO 16007KT 10SM CLR 23/15 A3002 RMK AO2 T02260151

More Conditions Fewer Conditions

Nepal has a long way to go to dig out and rebuild from a devastating earthquake. We have teamed up with several charities and organizations to make contributing to the relief effort as easy as possible.
How you can help: Portlight Strategies | Red Cross

10-Day Weather Forecast

Almanac

Astronomy

May. 04, 2015 Rise Set
Actual Time
Civil Twilight
Nautical Twilight
Astronomical Twilight
Moon
Length of Visible Light
Length of Day
Tomorrow will be .
, % of the Moon is Illuminated

Today's Extremes

State Highs State Lows

Community

WunderPhotos

Upload Photos

1,818,642 photos uploaded!

WunderBlogs® & News

Nearby

Air Quality

  Air Quality AQ Index Pollutant
Not available.

Snow Depth

Station Depth Elevation

Earthquake Activity

City Distance Mag. Time & Date
Minimum magnitude displayed is 2.5.

Coastal Water Temperatures

Place Temperature

Stations

Nearby Weather Stations

Station Location Temp. Windchill Dew Point Humidity Wind Precip. Elev Updated Type